TimeCST,TemperatureF,Dew PointF,Humidity,Sea Level PressureIn,VisibilityMPH,Wind Direction,Wind SpeedMPH,Gust SpeedMPH,PrecipitationIn,Events,Conditions,WindDirDegrees,DateUTC
12:15 AM,35.6,10.4,35,30.26,10.0,East,8.1,-,N/A,,Overcast,100,2013-01-25 06:15:00
12:35 AM,35.6,10.4,35,30.26,10.0,East,12.7,17.3,N/A,,Overcast,100,2013-01-25 06:35:00
12:55 AM,35.6,10.4,35,30.25,10.0,East,10.4,-,N/A,,Overcast,90,2013-01-25 06:55:00
1:15 AM,37.4,10.4,33,30.26,10.0,ESE,10.4,17.3,N/A,,Overcast,110,2013-01-25 07:15:00
1:35 AM,37.4,12.2,36,30.26,10.0,ESE,5.8,-,N/A,,Overcast,110,2013-01-25 07:35:00
1:55 AM,37.4,12.2,36,30.24,10.0,ESE,10.4,-,N/A,,Overcast,120,2013-01-25 07:55:00
2:15 AM,37.4,12.2,36,30.24,10.0,ESE,6.9,-,N/A,,Overcast,110,2013-01-25 08:15:00
2:35 AM,37.4,12.2,36,30.24,10.0,ESE,9.2,17.3,N/A,,Overcast,120,2013-01-25 08:35:00
2:55 AM,37.4,14.0,38,30.24,10.0,SE,6.9,-,N/A,,Overcast,130,2013-01-25 08:55:00
3:15 AM,37.4,12.2,36,30.23,10.0,ESE,6.9,18.4,N/A,,Overcast,120,2013-01-25 09:15:00
3:35 AM,37.4,14.0,38,30.22,10.0,SE,11.5,17.3,N/A,,Overcast,130,2013-01-25 09:35:00
3:55 AM,37.4,14.0,38,30.22,10.0,SE,11.5,17.3,N/A,,Overcast,130,2013-01-25 09:55:00
4:15 AM,37.4,14.0,38,30.21,10.0,SE,6.9,18.4,N/A,,Overcast,130,2013-01-25 10:15:00
4:35 AM,37.4,15.8,41,30.21,10.0,SE,6.9,-,N/A,,Overcast,130,2013-01-25 10:35:00
4:55 AM,37.4,17.6,45,30.21,10.0,SE,9.2,16.1,N/A,,Overcast,140,2013-01-25 10:55:00
5:15 AM,39.2,21.2,49,30.20,10.0,SE,8.1,16.1,N/A,Rain,Light Rain,140,2013-01-25 11:15:00
5:35 AM,39.2,21.2,49,30.20,10.0,SE,6.9,-,N/A,,Overcast,140,2013-01-25 11:35:00
5:55 AM,41.0,21.2,45,30.20,10.0,SE,8.1,-,N/A,,Overcast,140,2013-01-25 11:55:00
6:15 AM,41.0,23.0,49,30.20,10.0,SSE,10.4,17.3,N/A,,Overcast,150,2013-01-25 12:15:00
6:35 AM,41.0,24.8,53,30.20,10.0,SSE,9.2,-,N/A,,Overcast,150,2013-01-25 12:35:00
6:55 AM,41.0,24.8,53,30.20,10.0,SSE,9.2,16.1,N/A,,Overcast,150,2013-01-25 12:55:00
7:15 AM,39.2,28.4,65,30.19,10.0,SE,5.8,18.4,N/A,Rain,Light Rain,140,2013-01-25 13:15:00
7:35 AM,39.2,28.4,65,30.20,10.0,SE,5.8,-,N/A,,Overcast,140,2013-01-25 13:35:00
7:55 AM,41.0,28.4,61,30.19,10.0,SSE,9.2,-,N/A,,Overcast,150,2013-01-25 13:55:00
8:15 AM,41.0,28.4,61,30.19,10.0,SSE,12.7,16.1,N/A,,Light Drizzle,160,2013-01-25 14:15:00
8:35 AM,41.0,28.4,61,30.17,10.0,SSE,9.2,20.7,N/A,,Overcast,150,2013-01-25 14:35:00
8:55 AM,41.0,28.4,61,30.17,10.0,SSE,13.8,18.4,N/A,,Overcast,150,2013-01-25 14:55:00
9:15 AM,42.8,30.2,61,30.17,10.0,SSE,11.5,17.3,N/A,,Overcast,160,2013-01-25 15:15:00
9:35 AM,42.8,30.2,61,30.17,10.0,SSE,11.5,17.3,N/A,,Overcast,150,2013-01-25 15:35:00
9:55 AM,42.8,30.2,61,30.16,10.0,SSE,11.5,18.4,N/A,,Overcast,160,2013-01-25 15:55:00
10:15 AM,44.6,30.2,57,30.17,10.0,SSE,9.2,16.1,N/A,,Overcast,160,2013-01-25 16:15:00
10:35 AM,44.6,30.2,57,30.15,10.0,South,11.5,18.4,N/A,,Overcast,170,2013-01-25 16:35:00
10:55 AM,44.6,32.0,61,30.14,10.0,SSE,10.4,17.3,N/A,,Overcast,160,2013-01-25 16:55:00
11:15 AM,44.6,32.0,61,30.12,10.0,South,13.8,19.6,N/A,,Overcast,170,2013-01-25 17:15:00
11:35 AM,46.4,32.0,57,30.14,10.0,Calm,Calm,-,N/A,,Overcast,0,2013-01-25 17:35:00
11:55 AM,46.4,33.8,62,30.14,10.0,Calm,Calm,-,N/A,,Overcast,0,2013-01-25 17:55:00
12:15 PM,44.6,35.6,71,30.12,10.0,East,5.8,-,N/A,,Drizzle,100,2013-01-25 18:15:00
12:35 PM,44.6,35.6,71,30.11,10.0,ESE,3.5,-,N/A,,Light Drizzle,120,2013-01-25 18:35:00
12:55 PM,46.4,35.6,66,30.10,10.0,ESE,3.5,-,N/A,,Overcast,120,2013-01-25 18:55:00
1:15 PM,46.4,37.4,71,30.10,10.0,SE,4.6,-,N/A,,Overcast,140,2013-01-25 19:15:00
1:35 PM,46.4,37.4,71,30.09,10.0,SSE,4.6,-,N/A,,Overcast,150,2013-01-25 19:35:00
1:55 PM,48.2,37.4,66,30.08,10.0,SSE,5.8,-,N/A,,Overcast,150,2013-01-25 19:55:00
2:15 PM,50.0,37.4,62,30.09,10.0,SSE,3.5,-,N/A,,Overcast,160,2013-01-25 20:15:00
2:35 PM,50.0,37.4,62,30.08,10.0,SSE,4.6,-,N/A,,Overcast,150,2013-01-25 20:35:00
2:55 PM,50.0,37.4,62,30.08,10.0,Calm,Calm,-,N/A,,Overcast,0,2013-01-25 20:55:00
3:15 PM,50.0,37.4,62,30.08,10.0,Calm,Calm,-,N/A,,Overcast,0,2013-01-25 21:15:00
3:35 PM,51.8,39.2,62,30.07,10.0,SW,3.5,-,N/A,,Overcast,220,2013-01-25 21:35:00
3:55 PM,50.0,39.2,66,30.08,10.0,NNW,4.6,-,N/A,,Overcast,340,2013-01-25 21:55:00
4:15 PM,50.0,41.0,71,30.09,10.0,North,5.8,-,N/A,,Overcast,350,2013-01-25 22:15:00
4:35 PM,46.4,42.8,87,30.09,10.0,Calm,Calm,-,N/A,,Light Drizzle,0,2013-01-25 22:35:00
4:55 PM,44.6,44.6,100,30.09,4.0,North,3.5,-,N/A,Rain,Rain,10,2013-01-25 22:55:00
5:15 PM,44.6,44.6,100,30.11,3.0,North,6.9,-,N/A,,Drizzle,360,2013-01-25 23:15:00
5:35 PM,44.6,44.6,100,30.12,2.5,North,5.8,-,0.01,,Drizzle,360,2013-01-25 23:35:00
5:55 PM,44.6,44.6,100,30.11,2.5,ENE,3.5,-,0.01,Rain,Rain,70,2013-01-25 23:55:00
6:15 PM,42.8,42.8,100,30.12,3.0,Calm,Calm,-,0.01,,Drizzle,0,2013-01-26 00:15:00
6:35 PM,42.8,42.8,100,30.13,2.5,Calm,Calm,-,0.01,,Light Drizzle,0,2013-01-26 00:35:00
6:55 PM,44.6,-9999,N/A,30.13,2.5,Calm,Calm,-,0.01,,Overcast,0,2013-01-26 00:55:00
7:15 PM,44.6,-9999,N/A,30.13,2.5,East,3.5,-,0.01,Rain,Light Rain,100,2013-01-26 01:15:00
7:35 PM,44.6,-9999,N/A,30.13,2.0,Calm,Calm,-,0.01,,Overcast,0,2013-01-26 01:35:00
7:55 PM,44.6,-9999,N/A,30.13,2.5,Calm,Calm,-,0.01,,Overcast,0,2013-01-26 01:55:00
8:15 PM,44.6,-9999,N/A,30.14,1.8,North,3.5,-,0.01,,Light Drizzle,350,2013-01-26 02:15:00
8:35 PM,44.6,-9999,N/A,30.14,1.8,Calm,Calm,-,0.01,Rain,Rain,0,2013-01-26 02:35:00
8:55 PM,44.6,-9999,N/A,30.14,2.5,Calm,Calm,-,0.01,,Overcast,0,2013-01-26 02:55:00
9:15 PM,44.6,-9999,N/A,30.15,1.8,Calm,Calm,-,N/A,,Overcast,0,2013-01-26 03:15:00
9:55 PM,44.6,-9999,N/A,30.15,0.8,North,4.6,-,N/A,,Overcast,350,2013-01-26 03:55:00
10:15 PM,44.6,-9999,N/A,30.16,0.8,North,5.8,-,N/A,,Overcast,360,2013-01-26 04:15:00
10:35 PM,42.8,-9999,N/A,30.17,3.0,NNW,8.1,-,N/A,,Overcast,330,2013-01-26 04:35:00
10:55 PM,42.8,-9999,N/A,30.17,5.0,North,6.9,-,N/A,,Haze,360,2013-01-26 04:55:00
11:15 PM,42.8,-9999,N/A,30.16,10.0,North,8.1,-,N/A,,Overcast,350,2013-01-26 05:15:00
11:35 PM,42.8,-9999,N/A,30.16,10.0,North,8.1,-,0.01,,Overcast,10,2013-01-26 05:35:00
11:55 PM,42.8,-9999,N/A,30.16,7.0,North,8.1,-,0.01,,Overcast,360,2013-01-26 05:55:00